sensor_id;sensor_type;location;lat;lon;timestamp;P1;durP1;ratioP1;P2;durP2;ratioP2
69053;SDS011;56125;52.242;4.756;2024-03-29T00:02:40;1.30;;;0.50;;
69053;SDS011;56125;52.242;4.756;2024-03-29T00:07:41;2.57;;;0.80;;
69053;SDS011;56125;52.242;4.756;2024-03-29T00:12:42;1.98;;;0.77;;
69053;SDS011;56125;52.242;4.756;2024-03-29T00:17:43;1.00;;;0.60;;
69053;SDS011;56125;52.242;4.756;2024-03-29T00:22:44;1.02;;;0.88;;
69053;SDS011;56125;52.242;4.756;2024-03-29T00:27:45;3.83;;;0.60;;
69053;SDS011;56125;52.242;4.756;2024-03-29T00:32:48;1.52;;;0.80;;
69053;SDS011;56125;52.242;4.756;2024-03-29T00:37:49;2.00;;;0.83;;
69053;SDS011;56125;52.242;4.756;2024-03-29T00:42:50;2.38;;;0.60;;
69053;SDS011;56125;52.242;4.756;2024-03-29T00:47:52;1.63;;;0.80;;
69053;SDS011;56125;52.242;4.756;2024-03-29T00:52:53;1.15;;;0.60;;
69053;SDS011;56125;52.242;4.756;2024-03-29T00:57:54;3.17;;;0.70;;
69053;SDS011;56125;52.242;4.756;2024-03-29T01:02:55;2.70;;;0.80;;
69053;SDS011;56125;52.242;4.756;2024-03-29T01:07:56;2.67;;;1.10;;
69053;SDS011;56125;52.242;4.756;2024-03-29T01:12:57;1.67;;;0.85;;
69053;SDS011;56125;52.242;4.756;2024-03-29T01:17:58;1.63;;;0.80;;
69053;SDS011;56125;52.242;4.756;2024-03-29T01:22:59;1.50;;;0.75;;
69053;SDS011;56125;52.242;4.756;2024-03-29T01:28:01;1.43;;;0.70;;
69053;SDS011;56125;52.242;4.756;2024-03-29T01:33:02;1.83;;;0.77;;
69053;SDS011;56125;52.242;4.756;2024-03-29T01:38:03;2.00;;;0.90;;
69053;SDS011;56125;52.242;4.756;2024-03-29T01:43:04;1.70;;;0.80;;
69053;SDS011;56125;52.242;4.756;2024-03-29T01:48:06;1.50;;;0.70;;
69053;SDS011;56125;52.242;4.756;2024-03-29T01:53:07;1.90;;;0.80;;
69053;SDS011;56125;52.242;4.756;2024-03-29T01:58:09;1.23;;;0.70;;
69053;SDS011;56125;52.242;4.756;2024-03-29T02:03:11;2.40;;;0.90;;
69053;SDS011;56125;52.242;4.756;2024-03-29T02:08:14;1.57;;;0.63;;
69053;SDS011;56125;52.242;4.756;2024-03-29T02:13:17;1.83;;;0.70;;
69053;SDS011;56125;52.242;4.756;2024-03-29T02:18:18;2.37;;;0.73;;
69053;SDS011;56125;52.242;4.756;2024-03-29T02:23:19;2.17;;;0.93;;
69053;SDS011;56125;52.242;4.756;2024-03-29T02:28:23;2.33;;;1.00;;
69053;SDS011;56125;52.242;4.756;2024-03-29T02:33:24;2.58;;;0.82;;
69053;SDS011;56125;52.242;4.756;2024-03-29T02:38:25;2.50;;;0.80;;
69053;SDS011;56125;52.242;4.756;2024-03-29T02:43:26;1.15;;;0.80;;
69053;SDS011;56125;52.242;4.756;2024-03-29T02:48:28;1.13;;;0.70;;
69053;SDS011;56125;52.242;4.756;2024-03-29T02:53:29;1.38;;;0.75;;
69053;SDS011;56125;52.242;4.756;2024-03-29T02:58:30;2.57;;;0.80;;
69053;SDS011;56125;52.242;4.756;2024-03-29T03:03:31;2.40;;;0.90;;
69053;SDS011;56125;52.242;4.756;2024-03-29T03:08:32;1.17;;;0.70;;
69053;SDS011;56125;52.242;4.756;2024-03-29T03:13:52;2.60;;;0.80;;
69053;SDS011;56125;52.242;4.756;2024-03-29T03:18:53;1.37;;;0.90;;
69053;SDS011;56125;52.242;4.756;2024-03-29T03:23:54;1.70;;;0.98;;
69053;SDS011;56125;52.242;4.756;2024-03-29T03:28:55;1.93;;;0.77;;
69053;SDS011;56125;52.242;4.756;2024-03-29T03:33:56;2.38;;;0.80;;
69053;SDS011;56125;52.242;4.756;2024-03-29T03:38:57;1.13;;;0.93;;
69053;SDS011;56125;52.242;4.756;2024-03-29T03:43:59;0.90;;;0.75;;
69053;SDS011;56125;52.242;4.756;2024-03-29T03:49:00;2.63;;;0.90;;
69053;SDS011;56125;52.242;4.756;2024-03-29T03:54:01;2.00;;;0.80;;
69053;SDS011;56125;52.242;4.756;2024-03-29T03:59:02;3.37;;;0.80;;
69053;SDS011;56125;52.242;4.756;2024-03-29T04:04:03;2.00;;;0.70;;
69053;SDS011;56125;52.242;4.756;2024-03-29T04:09:04;1.17;;;0.70;;
69053;SDS011;56125;52.242;4.756;2024-03-29T04:14:05;1.98;;;0.90;;
69053;SDS011;56125;52.242;4.756;2024-03-29T04:19:06;1.90;;;0.60;;
69053;SDS011;56125;52.242;4.756;2024-03-29T04:24:07;1.15;;;0.88;;
69053;SDS011;56125;52.242;4.756;2024-03-29T04:29:10;1.77;;;0.80;;
69053;SDS011;56125;52.242;4.756;2024-03-29T04:34:11;1.67;;;1.00;;
69053;SDS011;56125;52.242;4.756;2024-03-29T04:39:12;1.77;;;0.73;;
69053;SDS011;56125;52.242;4.756;2024-03-29T04:44:22;1.63;;;0.90;;
69053;SDS011;56125;52.242;4.756;2024-03-29T04:49:28;1.53;;;0.83;;
69053;SDS011;56125;52.242;4.756;2024-03-29T04:54:33;0.90;;;0.60;;
69053;SDS011;56125;52.242;4.756;2024-03-29T04:59:35;1.80;;;0.90;;
69053;SDS011;56125;52.242;4.756;2024-03-29T05:04:36;1.50;;;0.80;;
69053;SDS011;56125;52.242;4.756;2024-03-29T05:09:37;3.77;;;0.70;;
69053;SDS011;56125;52.242;4.756;2024-03-29T05:14:38;1.67;;;0.75;;
69053;SDS011;56125;52.242;4.756;2024-03-29T05:19:39;1.80;;;0.70;;
69053;SDS011;56125;52.242;4.756;2024-03-29T05:24:40;1.10;;;0.73;;
69053;SDS011;56125;52.242;4.756;2024-03-29T05:29:41;1.73;;;0.70;;
69053;SDS011;56125;52.242;4.756;2024-03-29T05:34:42;1.45;;;0.63;;
69053;SDS011;56125;52.242;4.756;2024-03-29T05:39:43;1.40;;;0.70;;
69053;SDS011;56125;52.242;4.756;2024-03-29T05:44:44;0.95;;;0.50;;
69053;SDS011;56125;52.242;4.756;2024-03-29T05:49:45;0.70;;;0.70;;
69053;SDS011;56125;52.242;4.756;2024-03-29T05:54:46;1.30;;;0.70;;
69053;SDS011;56125;52.242;4.756;2024-03-29T05:59:47;0.70;;;0.50;;
69053;SDS011;56125;52.242;4.756;2024-03-29T06:04:48;1.08;;;0.60;;
69053;SDS011;56125;52.242;4.756;2024-03-29T06:09:50;0.60;;;0.50;;
69053;SDS011;56125;52.242;4.756;2024-03-29T06:14:51;0.80;;;0.60;;
69053;SDS011;56125;52.242;4.756;2024-03-29T06:20:10;0.77;;;0.70;;
69053;SDS011;56125;52.242;4.756;2024-03-29T06:25:12;1.17;;;0.57;;
69053;SDS011;56125;52.242;4.756;2024-03-29T06:30:13;1.10;;;0.60;;
69053;SDS011;56125;52.242;4.756;2024-03-29T06:35:19;1.00;;;0.60;;
69053;SDS011;56125;52.242;4.756;2024-03-29T06:40:22;0.50;;;0.50;;
69053;SDS011;56125;52.242;4.756;2024-03-29T06:45:23;1.00;;;0.63;;
69053;SDS011;56125;52.242;4.756;2024-03-29T06:50:24;0.70;;;0.60;;
69053;SDS011;56125;52.242;4.756;2024-03-29T06:55:25;0.75;;;0.60;;
69053;SDS011;56125;52.242;4.756;2024-03-29T07:00:26;0.80;;;0.50;;
69053;SDS011;56125;52.242;4.756;2024-03-29T07:05:27;0.80;;;0.60;;
69053;SDS011;56125;52.242;4.756;2024-03-29T07:10:29;0.50;;;0.50;;
69053;SDS011;56125;52.242;4.756;2024-03-29T07:15:31;0.70;;;0.70;;
69053;SDS011;56125;52.242;4.756;2024-03-29T07:20:32;1.23;;;0.50;;
69053;SDS011;56125;52.242;4.756;2024-03-29T07:25:33;2.15;;;0.80;;
69053;SDS011;56125;52.242;4.756;2024-03-29T07:30:35;0.83;;;0.60;;
69053;SDS011;56125;52.242;4.756;2024-03-29T07:35:38;1.50;;;0.80;;
69053;SDS011;56125;52.242;4.756;2024-03-29T07:40:41;1.60;;;0.80;;
69053;SDS011;56125;52.242;4.756;2024-03-29T07:45:43;3.58;;;0.73;;
69053;SDS011;56125;52.242;4.756;2024-03-29T07:50:45;3.63;;;0.80;;
69053;SDS011;56125;52.242;4.756;2024-03-29T07:55:49;0.98;;;0.80;;
69053;SDS011;56125;52.242;4.756;2024-03-29T08:00:51;5.80;;;0.77;;
69053;SDS011;56125;52.242;4.756;2024-03-29T08:06:02;1.45;;;0.68;;
69053;SDS011;56125;52.242;4.756;2024-03-29T08:11:07;1.73;;;0.60;;
69053;SDS011;56125;52.242;4.756;2024-03-29T08:16:10;0.60;;;0.60;;
69053;SDS011;56125;52.242;4.756;2024-03-29T08:21:11;2.03;;;0.50;;
69053;SDS011;56125;52.242;4.756;2024-03-29T08:26:12;2.25;;;0.60;;
69053;SDS011;56125;52.242;4.756;2024-03-29T08:31:13;1.00;;;0.50;;
69053;SDS011;56125;52.242;4.756;2024-03-29T08:36:14;1.15;;;0.70;;
69053;SDS011;56125;52.242;4.756;2024-03-29T08:41:15;0.93;;;0.53;;
69053;SDS011;56125;52.242;4.756;2024-03-29T08:46:16;1.25;;;0.77;;
69053;SDS011;56125;52.242;4.756;2024-03-29T08:51:18;0.93;;;0.63;;
69053;SDS011;56125;52.242;4.756;2024-03-29T08:56:19;1.20;;;0.52;;
69053;SDS011;56125;52.242;4.756;2024-03-29T09:01:20;1.47;;;0.60;;
69053;SDS011;56125;52.242;4.756;2024-03-29T09:06:21;1.67;;;0.68;;
69053;SDS011;56125;52.242;4.756;2024-03-29T09:11:22;0.63;;;0.60;;
69053;SDS011;56125;52.242;4.756;2024-03-29T09:16:24;1.98;;;0.60;;
69053;SDS011;56125;52.242;4.756;2024-03-29T09:21:25;1.17;;;0.63;;
69053;SDS011;56125;52.242;4.756;2024-03-29T09:26:26;0.80;;;0.63;;
69053;SDS011;56125;52.242;4.756;2024-03-29T09:31:27;0.80;;;0.73;;
69053;SDS011;56125;52.242;4.756;2024-03-29T09:36:28;1.83;;;0.80;;
69053;SDS011;56125;52.242;4.756;2024-03-29T09:41:30;2.17;;;0.70;;
69053;SDS011;56125;52.242;4.756;2024-03-29T09:46:36;2.88;;;0.60;;
69053;SDS011;56125;52.242;4.756;2024-03-29T09:51:40;3.70;;;0.60;;
69053;SDS011;56125;52.242;4.756;2024-03-29T09:56:44;1.90;;;0.75;;
69053;SDS011;56125;52.242;4.756;2024-03-29T10:01:45;1.70;;;0.63;;
69053;SDS011;56125;52.242;4.756;2024-03-29T10:06:48;1.15;;;0.88;;
69053;SDS011;56125;52.242;4.756;2024-03-29T10:11:52;0.88;;;0.63;;
69053;SDS011;56125;52.242;4.756;2024-03-29T10:16:53;1.40;;;0.80;;
69053;SDS011;56125;52.242;4.756;2024-03-29T10:22:04;0.60;;;0.60;;
69053;SDS011;56125;52.242;4.756;2024-03-29T10:27:07;1.27;;;0.82;;
69053;SDS011;56125;52.242;4.756;2024-03-29T10:32:08;1.25;;;0.60;;
69053;SDS011;56125;52.242;4.756;2024-03-29T10:37:09;6.35;;;0.60;;
69053;SDS011;56125;52.242;4.756;2024-03-29T10:42:11;1.40;;;0.60;;
69053;SDS011;56125;52.242;4.756;2024-03-29T10:47:12;0.80;;;0.68;;
69053;SDS011;56125;52.242;4.756;2024-03-29T10:52:22;0.77;;;0.60;;
69053;SDS011;56125;52.242;4.756;2024-03-29T10:57:26;0.75;;;0.60;;
69053;SDS011;56125;52.242;4.756;2024-03-29T11:07:37;1.77;;;0.83;;
69053;SDS011;56125;52.242;4.756;2024-03-29T11:12:43;1.00;;;0.80;;
69053;SDS011;56125;52.242;4.756;2024-03-29T11:18:07;2.40;;;0.80;;
69053;SDS011;56125;52.242;4.756;2024-03-29T11:23:10;1.15;;;0.90;;
69053;SDS011;56125;52.242;4.756;2024-03-29T11:28:14;0.80;;;0.60;;
69053;SDS011;56125;52.242;4.756;2024-03-29T11:33:31;1.35;;;0.90;;
69053;SDS011;56125;52.242;4.756;2024-03-29T11:38:34;1.30;;;1.00;;
69053;SDS011;56125;52.242;4.756;2024-03-29T11:43:36;1.58;;;1.02;;
69053;SDS011;56125;52.242;4.756;2024-03-29T11:48:38;1.10;;;1.00;;
69053;SDS011;56125;52.242;4.756;2024-03-29T11:53:39;1.30;;;1.00;;
69053;SDS011;56125;52.242;4.756;2024-03-29T11:58:41;1.27;;;0.90;;
69053;SDS011;56125;52.242;4.756;2024-03-29T12:03:42;1.50;;;0.90;;
69053;SDS011;56125;52.242;4.756;2024-03-29T12:08:47;0.73;;;0.70;;
69053;SDS011;56125;52.242;4.756;2024-03-29T12:13:50;1.17;;;0.95;;
69053;SDS011;56125;52.242;4.756;2024-03-29T12:18:51;1.27;;;1.00;;
69053;SDS011;56125;52.242;4.756;2024-03-29T12:23:52;1.77;;;1.17;;
69053;SDS011;56125;52.242;4.756;2024-03-29T12:28:53;1.63;;;0.90;;
69053;SDS011;56125;52.242;4.756;2024-03-29T12:33:56;1.30;;;1.00;;
69053;SDS011;56125;52.242;4.756;2024-03-29T12:38:58;1.77;;;0.83;;
69053;SDS011;56125;52.242;4.756;2024-03-29T12:44:03;1.60;;;0.90;;
69053;SDS011;56125;52.242;4.756;2024-03-29T12:49:04;3.93;;;1.10;;
69053;SDS011;56125;52.242;4.756;2024-03-29T12:54:05;1.50;;;1.02;;
69053;SDS011;56125;52.242;4.756;2024-03-29T12:59:06;1.60;;;1.00;;
69053;SDS011;56125;52.242;4.756;2024-03-29T13:04:07;1.50;;;1.10;;
69053;SDS011;56125;52.242;4.756;2024-03-29T13:09:08;2.00;;;1.20;;
69053;SDS011;56125;52.242;4.756;2024-03-29T13:14:10;1.52;;;1.10;;
69053;SDS011;56125;52.242;4.756;2024-03-29T13:19:11;1.57;;;1.07;;
69053;SDS011;56125;52.242;4.756;2024-03-29T13:24:12;1.13;;;1.00;;
69053;SDS011;56125;52.242;4.756;2024-03-29T13:29:13;1.33;;;1.13;;
69053;SDS011;56125;52.242;4.756;2024-03-29T13:34:15;2.85;;;1.50;;
69053;SDS011;56125;52.242;4.756;2024-03-29T13:39:18;1.97;;;1.43;;
69053;SDS011;56125;52.242;4.756;2024-03-29T13:44:19;1.63;;;1.52;;
69053;SDS011;56125;52.242;4.756;2024-03-29T13:49:20;1.90;;;1.40;;
69053;SDS011;56125;52.242;4.756;2024-03-29T13:54:23;3.08;;;1.40;;
69053;SDS011;56125;52.242;4.756;2024-03-29T13:59:24;2.47;;;1.40;;
69053;SDS011;56125;52.242;4.756;2024-03-29T14:04:25;1.98;;;1.50;;
69053;SDS011;56125;52.242;4.756;2024-03-29T14:09:26;2.93;;;1.90;;
69053;SDS011;56125;52.242;4.756;2024-03-29T14:14:27;2.97;;;1.70;;
69053;SDS011;56125;52.242;4.756;2024-03-29T14:19:28;4.50;;;1.60;;
69053;SDS011;56125;52.242;4.756;2024-03-29T14:24:30;2.70;;;1.60;;
69053;SDS011;56125;52.242;4.756;2024-03-29T14:29:35;2.93;;;1.67;;
69053;SDS011;56125;52.242;4.756;2024-03-29T14:34:36;1.48;;;1.30;;
69053;SDS011;56125;52.242;4.756;2024-03-29T14:39:40;1.93;;;1.60;;
69053;SDS011;56125;52.242;4.756;2024-03-29T14:44:42;3.17;;;1.15;;
69053;SDS011;56125;52.242;4.756;2024-03-29T14:49:43;2.13;;;1.30;;
69053;SDS011;56125;52.242;4.756;2024-03-29T14:54:44;1.58;;;1.45;;
69053;SDS011;56125;52.242;4.756;2024-03-29T14:59:45;1.30;;;1.10;;
69053;SDS011;56125;52.242;4.756;2024-03-29T15:04:47;1.45;;;1.10;;
69053;SDS011;56125;52.242;4.756;2024-03-29T15:09:51;2.13;;;1.00;;
69053;SDS011;56125;52.242;4.756;2024-03-29T15:14:52;1.58;;;1.30;;
69053;SDS011;56125;52.242;4.756;2024-03-29T15:19:53;2.10;;;1.00;;
69053;SDS011;56125;52.242;4.756;2024-03-29T15:24:54;1.95;;;1.75;;
69053;SDS011;56125;52.242;4.756;2024-03-29T15:29:55;3.43;;;1.20;;
69053;SDS011;56125;52.242;4.756;2024-03-29T15:34:56;1.30;;;1.15;;
69053;SDS011;56125;52.242;4.756;2024-03-29T15:39:57;1.67;;;0.97;;
69053;SDS011;56125;52.242;4.756;2024-03-29T15:44:58;1.55;;;0.93;;
69053;SDS011;56125;52.242;4.756;2024-03-29T15:50:00;2.33;;;1.00;;
69053;SDS011;56125;52.242;4.756;2024-03-29T15:55:01;1.33;;;1.20;;
69053;SDS011;56125;52.242;4.756;2024-03-29T16:00:02;2.20;;;1.27;;
69053;SDS011;56125;52.242;4.756;2024-03-29T16:05:04;1.38;;;1.10;;
69053;SDS011;56125;52.242;4.756;2024-03-29T16:10:06;2.13;;;1.10;;
69053;SDS011;56125;52.242;4.756;2024-03-29T16:15:07;2.17;;;1.20;;
69053;SDS011;56125;52.242;4.756;2024-03-29T16:20:09;1.43;;;0.97;;
69053;SDS011;56125;52.242;4.756;2024-03-29T16:25:10;1.30;;;1.20;;
69053;SDS011;56125;52.242;4.756;2024-03-29T16:30:11;1.83;;;1.17;;
69053;SDS011;56125;52.242;4.756;2024-03-29T16:35:13;2.00;;;1.20;;
69053;SDS011;56125;52.242;4.756;2024-03-29T16:40:15;1.40;;;0.90;;
69053;SDS011;56125;52.242;4.756;2024-03-29T16:45:16;2.25;;;1.10;;
69053;SDS011;56125;52.242;4.756;2024-03-29T16:50:17;2.03;;;0.80;;
69053;SDS011;56125;52.242;4.756;2024-03-29T16:55:18;3.13;;;1.17;;
69053;SDS011;56125;52.242;4.756;2024-03-29T17:00:19;1.47;;;1.27;;
69053;SDS011;56125;52.242;4.756;2024-03-29T17:05:21;3.30;;;1.40;;
69053;SDS011;56125;52.242;4.756;2024-03-29T17:10:22;2.17;;;1.20;;
69053;SDS011;56125;52.242;4.756;2024-03-29T17:15:23;1.88;;;1.15;;
69053;SDS011;56125;52.242;4.756;2024-03-29T17:20:24;1.70;;;0.93;;
69053;SDS011;56125;52.242;4.756;2024-03-29T17:25:25;3.90;;;1.10;;
69053;SDS011;56125;52.242;4.756;2024-03-29T17:30:27;2.53;;;0.83;;
69053;SDS011;56125;52.242;4.756;2024-03-29T17:35:28;1.52;;;1.05;;
69053;SDS011;56125;52.242;4.756;2024-03-29T17:40:29;2.43;;;1.20;;
69053;SDS011;56125;52.242;4.756;2024-03-29T17:45:30;1.23;;;0.90;;
69053;SDS011;56125;52.242;4.756;2024-03-29T17:50:31;1.57;;;0.80;;
69053;SDS011;56125;52.242;4.756;2024-03-29T17:55:32;1.60;;;0.90;;
69053;SDS011;56125;52.242;4.756;2024-03-29T18:00:33;0.93;;;0.73;;
69053;SDS011;56125;52.242;4.756;2024-03-29T18:05:34;1.98;;;1.02;;
69053;SDS011;56125;52.242;4.756;2024-03-29T18:10:36;2.87;;;0.83;;
69053;SDS011;56125;52.242;4.756;2024-03-29T18:15:37;2.75;;;1.00;;
69053;SDS011;56125;52.242;4.756;2024-03-29T18:20:41;0.87;;;0.70;;
69053;SDS011;56125;52.242;4.756;2024-03-29T18:25:43;1.10;;;0.70;;
69053;SDS011;56125;52.242;4.756;2024-03-29T18:30:46;2.77;;;0.90;;
69053;SDS011;56125;52.242;4.756;2024-03-29T18:35:48;1.70;;;0.80;;
69053;SDS011;56125;52.242;4.756;2024-03-29T18:40:49;1.27;;;0.90;;
69053;SDS011;56125;52.242;4.756;2024-03-29T18:45:50;1.98;;;1.00;;
69053;SDS011;56125;52.242;4.756;2024-03-29T18:50:54;1.67;;;0.97;;
69053;SDS011;56125;52.242;4.756;2024-03-29T18:55:59;1.40;;;1.10;;
69053;SDS011;56125;52.242;4.756;2024-03-29T19:01:01;1.53;;;1.00;;
69053;SDS011;56125;52.242;4.756;2024-03-29T19:06:03;2.20;;;1.10;;
69053;SDS011;56125;52.242;4.756;2024-03-29T19:11:04;1.23;;;1.00;;
69053;SDS011;56125;52.242;4.756;2024-03-29T19:16:05;1.20;;;1.05;;
69053;SDS011;56125;52.242;4.756;2024-03-29T19:21:06;2.37;;;0.90;;
69053;SDS011;56125;52.242;4.756;2024-03-29T19:26:07;1.30;;;1.10;;
69053;SDS011;56125;52.242;4.756;2024-03-29T19:31:08;1.73;;;1.20;;
69053;SDS011;56125;52.242;4.756;2024-03-29T19:36:10;1.40;;;1.15;;
69053;SDS011;56125;52.242;4.756;2024-03-29T19:41:11;2.43;;;1.03;;
69053;SDS011;56125;52.242;4.756;2024-03-29T19:46:12;1.92;;;1.05;;
69053;SDS011;56125;52.242;4.756;2024-03-29T19:51:13;3.07;;;1.07;;
69053;SDS011;56125;52.242;4.756;2024-03-29T19:56:14;1.13;;;1.00;;
69053;SDS011;56125;52.242;4.756;2024-03-29T20:01:15;1.30;;;1.00;;
69053;SDS011;56125;52.242;4.756;2024-03-29T20:06:16;1.63;;;0.90;;
69053;SDS011;56125;52.242;4.756;2024-03-29T20:11:17;0.90;;;0.80;;
69053;SDS011;56125;52.242;4.756;2024-03-29T20:16:18;1.50;;;1.00;;
69053;SDS011;56125;52.242;4.756;2024-03-29T20:21:20;1.30;;;0.80;;
69053;SDS011;56125;52.242;4.756;2024-03-29T20:26:21;1.90;;;0.90;;
69053;SDS011;56125;52.242;4.756;2024-03-29T20:31:22;1.70;;;1.00;;
69053;SDS011;56125;52.242;4.756;2024-03-29T20:36:23;1.55;;;1.20;;
69053;SDS011;56125;52.242;4.756;2024-03-29T20:41:24;1.57;;;1.00;;
69053;SDS011;56125;52.242;4.756;2024-03-29T20:46:25;1.00;;;0.90;;
69053;SDS011;56125;52.242;4.756;2024-03-29T20:51:26;1.23;;;1.10;;
69053;SDS011;56125;52.242;4.756;2024-03-29T20:56:27;1.27;;;1.10;;
69053;SDS011;56125;52.242;4.756;2024-03-29T21:01:28;1.90;;;1.30;;
69053;SDS011;56125;52.242;4.756;2024-03-29T21:06:48;2.13;;;1.02;;
69053;SDS011;56125;52.242;4.756;2024-03-29T21:11:49;1.33;;;0.93;;
69053;SDS011;56125;52.242;4.756;2024-03-29T21:16:50;1.55;;;1.13;;
69053;SDS011;56125;52.242;4.756;2024-03-29T21:21:51;1.73;;;1.20;;
69053;SDS011;56125;52.242;4.756;2024-03-29T21:26:52;1.45;;;1.10;;
69053;SDS011;56125;52.242;4.756;2024-03-29T21:31:53;1.20;;;1.03;;
69053;SDS011;56125;52.242;4.756;2024-03-29T21:36:54;3.08;;;1.25;;
69053;SDS011;56125;52.242;4.756;2024-03-29T21:41:55;1.60;;;1.17;;
69053;SDS011;56125;52.242;4.756;2024-03-29T21:46:56;1.50;;;1.10;;
69053;SDS011;56125;52.242;4.756;2024-03-29T21:51:57;2.03;;;1.10;;
69053;SDS011;56125;52.242;4.756;2024-03-29T21:56:58;1.73;;;1.25;;
69053;SDS011;56125;52.242;4.756;2024-03-29T22:02:00;2.17;;;0.97;;
69053;SDS011;56125;52.242;4.756;2024-03-29T22:07:01;1.15;;;1.00;;
69053;SDS011;56125;52.242;4.756;2024-03-29T22:12:05;2.47;;;1.10;;
69053;SDS011;56125;52.242;4.756;2024-03-29T22:17:07;1.48;;;1.00;;
69053;SDS011;56125;52.242;4.756;2024-03-29T22:22:08;2.40;;;1.50;;
69053;SDS011;56125;52.242;4.756;2024-03-29T22:27:09;1.80;;;1.20;;
69053;SDS011;56125;52.242;4.756;2024-03-29T22:32:10;2.63;;;1.00;;
69053;SDS011;56125;52.242;4.756;2024-03-29T22:37:11;2.05;;;1.40;;
69053;SDS011;56125;52.242;4.756;2024-03-29T22:42:12;2.43;;;1.40;;
69053;SDS011;56125;52.242;4.756;2024-03-29T22:47:13;1.98;;;1.20;;
69053;SDS011;56125;52.242;4.756;2024-03-29T22:52:14;1.90;;;1.10;;
69053;SDS011;56125;52.242;4.756;2024-03-29T22:57:15;1.75;;;1.30;;
69053;SDS011;56125;52.242;4.756;2024-03-29T23:02:16;1.67;;;1.20;;
69053;SDS011;56125;52.242;4.756;2024-03-29T23:07:17;1.65;;;1.30;;
69053;SDS011;56125;52.242;4.756;2024-03-29T23:12:20;1.53;;;1.23;;
69053;SDS011;56125;52.242;4.756;2024-03-29T23:17:21;1.52;;;1.00;;
69053;SDS011;56125;52.242;4.756;2024-03-29T23:22:22;1.63;;;1.00;;
69053;SDS011;56125;52.242;4.756;2024-03-29T23:27:23;1.88;;;1.20;;
69053;SDS011;56125;52.242;4.756;2024-03-29T23:32:25;1.90;;;1.10;;
69053;SDS011;56125;52.242;4.756;2024-03-29T23:37:26;1.45;;;1.05;;
69053;SDS011;56125;52.242;4.756;2024-03-29T23:42:27;1.80;;;1.13;;
69053;SDS011;56125;52.242;4.756;2024-03-29T23:47:28;1.95;;;1.30;;
69053;SDS011;56125;52.242;4.756;2024-03-29T23:52:29;1.50;;;1.20;;
69053;SDS011;56125;52.242;4.756;2024-03-29T23:57:30;1.20;;;1.00;;
